Time;durP1;ratioP1;P1;durP2;ratioP2;P2;SDS_P1;SDS_P2;PMS_P1;PMS_P2;Temp;Humidity;BMP_temperature;BMP_pressure;BME280_temperature;BME280_humidity;BME280_pressure;Samples;Min_cycle;Max_cycle;Signal;HPM_P1;HPM_P2
2022/01/04 00:00:40;;;;;;;6.03;3.50;;;;;;;;;;4876464;29;20061;-69
2022/01/04 00:03:10;;;;;;;8.60;3.80;;;;;;;;;;4877013;29;20065;-71
2022/01/04 00:05:41;;;;;;;11.85;3.95;;;;;;;;;;4858490;29;20573;-69
2022/01/04 00:08:13;;;;;;;7.63;3.97;;;;;;;;;;4854629;29;20054;-68
2022/01/04 00:10:43;;;;;;;7.88;4.45;;;;;;;;;;4887027;29;20556;-68
2022/01/04 00:13:23;;;;;;;9.60;4.18;;;;;;;;;;4867947;29;20530;-68
2022/01/04 00:15:56;;;;;;;7.82;3.80;;;;;;;;;;4895352;29;20575;-70
2022/01/04 00:18:27;;;;;;;5.82;3.08;;;;;;;;;;4905736;29;20056;-68
2022/01/04 00:20:58;;;;;;;5.57;3.88;;;;;;;;;;4914762;29;20068;-68
2022/01/04 00:23:30;;;;;;;9.18;5.50;;;;;;;;;;4914180;29;20126;-69
2022/01/04 00:26:02;;;;;;;10.38;5.15;;;;;;;;;;4913809;29;20507;-70
2022/01/04 00:28:33;;;;;;;7.88;4.68;;;;;;;;;;4910679;29;20053;-68
2022/01/04 00:31:04;;;;;;;8.50;5.03;;;;;;;;;;4894820;29;20064;-69
2022/01/04 00:33:35;;;;;;;10.75;4.45;;;;;;;;;;4895054;29;20517;-69
2022/01/04 00:36:09;;;;;;;7.75;4.05;;;;;;;;;;4913846;29;20060;-70
2022/01/04 00:38:42;;;;;;;11.52;4.65;;;;;;;;;;4920471;28;20073;-68
2022/01/04 00:41:13;;;;;;;14.90;5.78;;;;;;;;;;4971414;28;20055;-69
2022/01/04 00:43:45;;;;;;;64.85;47.47;;;;;;;;;;4932065;28;20044;-70
2022/01/04 00:46:17;;;;;;;53.90;39.58;;;;;;;;;;4889218;29;20060;-68
2022/01/04 00:51:42;;;;;;;39.58;27.83;;;;;;;;;;4913432;29;20052;-69
2022/01/04 00:54:13;;;;;;;13.30;7.97;;;;;;;;;;4938677;29;20051;-69
2022/01/04 00:56:48;;;;;;;11.23;4.97;;;;;;;;;;4933113;29;20054;-69
2022/01/04 00:59:19;;;;;;;10.02;5.13;;;;;;;;;;4935786;29;20499;-68
2022/01/04 01:01:50;;;;;;;9.25;5.03;;;;;;;;;;4951347;29;20051;-69
2022/01/04 01:04:22;;;;;;;13.73;5.03;;;;;;;;;;4952649;28;20051;-68
2022/01/04 01:06:53;;;;;;;7.10;4.38;;;;;;;;;;4950626;28;20051;-68
2022/01/04 01:09:29;;;;;;;70.90;51.05;;;;;;;;;;4938028;29;20091;-69
2022/01/04 01:12:00;;;;;;;111.15;90.28;;;;;;;;;;4934148;29;20059;-68
2022/01/04 01:14:30;;;;;;;91.45;72.03;;;;;;;;;;4949014;29;20055;-70
2022/01/04 01:17:02;;;;;;;31.30;22.98;;;;;;;;;;4913084;29;20052;-68
2022/01/04 01:19:34;;;;;;;12.30;8.43;;;;;;;;;;4880186;29;20418;-69
2022/01/04 01:22:05;;;;;;;11.60;6.70;;;;;;;;;;4911516;29;20044;-69
2022/01/04 01:24:35;;;;;;;11.00;6.13;;;;;;;;;;4912772;29;20052;-69
2022/01/04 01:27:06;;;;;;;11.60;4.95;;;;;;;;;;4909327;29;20044;-70
2022/01/04 01:29:37;;;;;;;11.73;5.30;;;;;;;;;;4888877;29;20058;-69
2022/01/04 01:32:08;;;;;;;9.25;4.28;;;;;;;;;;4884255;29;20080;-69
2022/01/04 01:34:41;;;;;;;10.07;5.03;;;;;;;;;;4895168;29;20052;-69
2022/01/04 01:37:12;;;;;;;11.68;5.32;;;;;;;;;;4912799;29;20053;-69
2022/01/04 01:39:43;;;;;;;6.85;4.00;;;;;;;;;;4893742;29;20057;-69
2022/01/04 01:42:14;;;;;;;7.93;4.45;;;;;;;;;;4875278;29;20156;-69
2022/01/04 01:44:45;;;;;;;7.20;4.07;;;;;;;;;;4875423;29;20064;-68
2022/01/04 01:47:16;;;;;;;7.45;4.25;;;;;;;;;;4871390;29;20058;-69
2022/01/04 01:49:49;;;;;;;8.98;5.22;;;;;;;;;;4856840;29;20064;-69
2022/01/04 01:52:20;;;;;;;7.13;4.57;;;;;;;;;;4871761;29;20053;-68
2022/01/04 01:54:53;;;;;;;9.95;4.85;;;;;;;;;;4867432;29;20594;-69
2022/01/04 01:57:24;;;;;;;7.80;4.60;;;;;;;;;;4827480;29;20065;-71
2022/01/04 01:59:57;;;;;;;10.35;4.85;;;;;;;;;;4817153;29;20058;-70
2022/01/04 02:02:28;;;;;;;6.75;4.95;;;;;;;;;;4830928;29;20050;-70
2022/01/04 02:05:00;;;;;;;8.68;4.75;;;;;;;;;;4847208;29;20046;-69
2022/01/04 02:07:32;;;;;;;9.35;4.95;;;;;;;;;;4850251;29;20557;-70
2022/01/04 02:10:06;;;;;;;9.65;5.10;;;;;;;;;;4891366;29;21092;-70
2022/01/04 02:12:49;;;;;;;10.05;4.88;;;;;;;;;;4905078;29;20552;-71
2022/01/04 02:15:23;;;;;;;7.90;6.30;;;;;;;;;;4910276;29;20063;-69
2022/01/04 02:17:55;;;;;;;8.75;4.57;;;;;;;;;;4940682;28;20533;-70
2022/01/04 02:20:27;;;;;;;10.55;5.10;;;;;;;;;;4917225;28;20047;-70
2022/01/04 02:22:58;;;;;;;10.55;4.93;;;;;;;;;;4906116;29;20063;-70
2022/01/04 02:25:28;;;;;;;10.32;4.75;;;;;;;;;;4899936;29;20060;-72
2022/01/04 02:28:00;;;;;;;9.98;5.53;;;;;;;;;;4893658;29;20501;-70
2022/01/04 02:30:31;;;;;;;9.88;5.25;;;;;;;;;;4874924;29;20045;-70
2022/01/04 02:33:01;;;;;;;10.07;5.55;;;;;;;;;;4869082;29;20049;-69
2022/01/04 02:35:31;;;;;;;12.85;5.20;;;;;;;;;;4847036;29;20073;-69
2022/01/04 02:38:03;;;;;;;11.70;4.50;;;;;;;;;;4893136;29;20056;-69
2022/01/04 02:40:34;;;;;;;10.45;4.88;;;;;;;;;;4909071;29;20063;-69
2022/01/04 02:43:04;;;;;;;7.80;5.05;;;;;;;;;;4893703;29;20057;-70
2022/01/04 02:45:35;;;;;;;13.25;5.05;;;;;;;;;;4877096;29;20534;-69
2022/01/04 02:48:05;;;;;;;16.35;5.50;;;;;;;;;;4901008;29;20056;-71
2022/01/04 02:50:36;;;;;;;11.45;5.15;;;;;;;;;;4934694;29;20047;-69
2022/01/04 02:53:06;;;;;;;10.90;5.03;;;;;;;;;;4912501;29;20181;-69
2022/01/04 02:55:36;;;;;;;13.88;4.35;;;;;;;;;;4912135;29;20425;-70
2022/01/04 02:58:07;;;;;;;13.23;5.05;;;;;;;;;;4950326;29;20439;-70
2022/01/04 03:00:39;;;;;;;12.25;4.90;;;;;;;;;;4953383;28;20051;-71
2022/01/04 03:03:09;;;;;;;13.10;4.90;;;;;;;;;;4950235;29;20107;-70
2022/01/04 03:05:39;;;;;;;9.43;5.50;;;;;;;;;;4950173;28;20051;-70
2022/01/04 03:08:10;;;;;;;11.43;4.30;;;;;;;;;;4940129;28;20058;-70
2022/01/04 03:10:40;;;;;;;12.18;5.25;;;;;;;;;;4934941;29;20055;-69
2022/01/04 03:13:10;;;;;;;8.55;4.80;;;;;;;;;;4931091;29;20059;-70
2022/01/04 03:15:40;;;;;;;9.55;4.32;;;;;;;;;;4906359;29;20063;-70
2022/01/04 03:18:11;;;;;;;8.43;4.95;;;;;;;;;;4912305;29;20776;-70
2022/01/04 03:20:41;;;;;;;11.65;5.18;;;;;;;;;;4911472;29;21142;-70
2022/01/04 03:23:12;;;;;;;9.27;4.78;;;;;;;;;;4912130;29;20056;-70
2022/01/04 03:25:42;;;;;;;11.93;4.40;;;;;;;;;;4912329;29;20436;-70
2022/01/04 03:28:13;;;;;;;7.15;5.10;;;;;;;;;;4911967;29;20064;-71
2022/01/04 03:30:44;;;;;;;13.32;5.30;;;;;;;;;;4943504;28;20062;-69
2022/01/04 03:33:15;;;;;;;9.88;5.10;;;;;;;;;;4991510;28;20054;-70
2022/01/04 03:35:45;;;;;;;11.80;4.60;;;;;;;;;;4927889;29;20063;-70
2022/01/04 03:38:15;;;;;;;12.70;5.15;;;;;;;;;;4914839;29;20444;-72
2022/01/04 03:40:47;;;;;;;13.85;4.75;;;;;;;;;;4915429;29;20064;-71
2022/01/04 03:43:18;;;;;;;13.35;5.25;;;;;;;;;;4915270;29;20071;-69
2022/01/04 03:45:51;;;;;;;9.63;4.40;;;;;;;;;;4924504;29;20048;-70
2022/01/04 03:48:23;;;;;;;11.13;5.40;;;;;;;;;;4899206;29;20056;-71
2022/01/04 03:50:54;;;;;;;13.48;4.78;;;;;;;;;;4915629;29;20657;-70
2022/01/04 03:53:25;;;;;;;10.60;4.25;;;;;;;;;;4914923;29;20056;-71
2022/01/04 03:55:55;;;;;;;14.38;5.50;;;;;;;;;;4914494;29;20523;-71
2022/01/04 03:58:25;;;;;;;14.55;5.60;;;;;;;;;;4914982;29;20066;-70
2022/01/04 04:00:56;;;;;;;10.10;4.90;;;;;;;;;;4915229;29;20433;-70
2022/01/04 04:03:27;;;;;;;17.85;4.78;;;;;;;;;;4868608;29;20490;-70
2022/01/04 04:05:58;;;;;;;15.05;5.22;;;;;;;;;;4895382;29;20056;-70
2022/01/04 04:08:28;;;;;;;11.05;6.13;;;;;;;;;;4858476;29;20050;-70
2022/01/04 04:10:59;;;;;;;13.05;5.90;;;;;;;;;;4858479;29;20061;-69
2022/01/04 04:13:29;;;;;;;11.82;5.72;;;;;;;;;;4878188;29;20064;-71
2022/01/04 04:16:00;;;;;;;15.57;5.90;;;;;;;;;;4904044;29;20480;-71
2022/01/04 04:18:30;;;;;;;15.38;5.88;;;;;;;;;;4895784;29;20064;-71
2022/01/04 04:21:00;;;;;;;16.38;5.78;;;;;;;;;;4895627;29;20064;-70
2022/01/04 04:23:31;;;;;;;15.02;4.78;;;;;;;;;;4905275;29;20445;-70
2022/01/04 04:26:01;;;;;;;11.40;5.05;;;;;;;;;;4933222;29;20066;-70
2022/01/04 04:28:31;;;;;;;15.35;5.53;;;;;;;;;;4933045;29;20060;-71
2022/01/04 04:31:03;;;;;;;12.20;5.55;;;;;;;;;;4949038;29;20059;-70
2022/01/04 04:33:34;;;;;;;11.07;4.80;;;;;;;;;;4952678;29;20416;-71
2022/01/04 04:36:05;;;;;;;12.45;5.63;;;;;;;;;;4967761;28;20050;-70
2022/01/04 04:38:35;;;;;;;12.98;5.68;;;;;;;;;;4935972;29;20510;-70
2022/01/04 04:41:06;;;;;;;18.00;5.55;;;;;;;;;;4951633;28;20063;-70
2022/01/04 04:43:36;;;;;;;12.63;4.93;;;;;;;;;;4952233;28;20673;-70
2022/01/04 04:46:07;;;;;;;11.70;5.53;;;;;;;;;;4952084;29;20051;-71
2022/01/04 04:48:37;;;;;;;11.95;5.78;;;;;;;;;;4952167;29;20099;-70
2022/01/04 04:51:07;;;;;;;12.50;5.40;;;;;;;;;;4936161;29;20575;-70
2022/01/04 04:53:37;;;;;;;15.73;5.93;;;;;;;;;;4923780;29;20056;-70
2022/01/04 04:56:08;;;;;;;13.02;5.70;;;;;;;;;;4951623;29;20062;-70
2022/01/04 04:58:38;;;;;;;22.67;6.43;;;;;;;;;;4952038;29;20051;-71
2022/01/04 05:01:08;;;;;;;17.80;5.65;;;;;;;;;;4970831;28;20062;-72
2022/01/04 05:03:39;;;;;;;21.45;6.40;;;;;;;;;;4971260;28;20066;-71
2022/01/04 05:06:09;;;;;;;18.73;4.88;;;;;;;;;;4971262;28;20384;-70
2022/01/04 05:08:39;;;;;;;18.35;5.18;;;;;;;;;;4961525;28;20051;-70
2022/01/04 05:11:10;;;;;;;11.80;4.38;;;;;;;;;;4951898;29;20491;-70
2022/01/04 05:13:41;;;;;;;19.25;5.45;;;;;;;;;;4926373;29;20058;-72
2022/01/04 05:16:12;;;;;;;11.00;5.20;;;;;;;;;;4932315;29;20059;-70
2022/01/04 05:18:42;;;;;;;9.63;5.10;;;;;;;;;;4932576;29;20058;-70
2022/01/04 05:21:12;;;;;;;18.05;5.15;;;;;;;;;;4909634;29;20078;-71
2022/01/04 05:23:42;;;;;;;16.90;5.72;;;;;;;;;;4932965;29;20548;-72
2022/01/04 05:26:13;;;;;;;15.00;4.55;;;;;;;;;;4913075;29;20056;-71
2022/01/04 05:28:45;;;;;;;21.73;5.43;;;;;;;;;;4932231;29;20427;-70
2022/01/04 05:31:15;;;;;;;9.65;5.53;;;;;;;;;;4929312;29;20067;-70
2022/01/04 05:33:46;;;;;;;11.73;4.97;;;;;;;;;;4903548;29;20056;-71
2022/01/04 05:36:16;;;;;;;13.48;5.07;;;;;;;;;;4913619;29;20052;-70
2022/01/04 05:38:47;;;;;;;16.63;4.47;;;;;;;;;;4931669;29;20186;-71
2022/01/04 05:41:18;;;;;;;11.48;4.88;;;;;;;;;;4931849;29;20059;-71
2022/01/04 05:43:48;;;;;;;12.07;5.28;;;;;;;;;;4932166;29;20056;-70
2022/01/04 05:46:19;;;;;;;12.98;5.07;;;;;;;;;;4941572;29;20056;-70
2022/01/04 05:48:49;;;;;;;11.20;5.22;;;;;;;;;;4931812;29;20055;-70
2022/01/04 05:51:19;;;;;;;11.88;5.22;;;;;;;;;;4931992;29;20063;-72
2022/01/04 05:53:51;;;;;;;10.07;4.90;;;;;;;;;;4935277;29;20047;-70
2022/01/04 05:56:21;;;;;;;12.13;4.90;;;;;;;;;;4935568;29;20062;-72
2022/01/04 05:58:51;;;;;;;14.10;5.63;;;;;;;;;;4950843;29;20059;-71
2022/01/04 06:01:22;;;;;;;11.45;4.75;;;;;;;;;;4951374;29;20527;-70
2022/01/04 06:03:52;;;;;;;14.77;4.93;;;;;;;;;;4969718;28;20635;-71
2022/01/04 06:06:23;;;;;;;15.35;5.35;;;;;;;;;;4950962;29;20062;-71
2022/01/04 06:08:53;;;;;;;19.02;4.97;;;;;;;;;;4951011;29;20051;-70
2022/01/04 06:11:42;;;;;;;13.60;5.05;;;;;;;;;;4951109;29;20071;-71
2022/01/04 06:17:03;;;;;;;14.23;5.15;;;;;;;;;;4950935;29;20222;-72
2022/01/04 06:19:33;;;;;;;14.85;4.57;;;;;;;;;;4950529;29;20055;-71
2022/01/04 06:22:04;;;;;;;11.05;4.57;;;;;;;;;;4931022;29;20516;-70
2022/01/04 06:24:36;;;;;;;12.18;4.80;;;;;;;;;;4946018;29;20393;-71
2022/01/04 06:27:11;;;;;;;17.42;5.28;;;;;;;;;;4945577;29;20400;-70
2022/01/04 06:29:42;;;;;;;12.90;5.25;;;;;;;;;;4950816;29;20059;-72
2022/01/04 06:32:12;;;;;;;18.70;5.28;;;;;;;;;;4931265;29;20060;-70
2022/01/04 06:34:44;;;;;;;19.52;5.75;;;;;;;;;;4916187;29;20071;-70
2022/01/04 06:37:14;;;;;;;16.23;5.78;;;;;;;;;;4899865;29;20051;-70
2022/01/04 06:39:45;;;;;;;16.88;5.40;;;;;;;;;;4931028;29;20723;-70
2022/01/04 06:42:16;;;;;;;17.58;5.35;;;;;;;;;;4931550;29;20059;-70
2022/01/04 06:44:46;;;;;;;18.17;5.65;;;;;;;;;;4931340;29;20066;-70
2022/01/04 06:47:17;;;;;;;12.48;5.13;;;;;;;;;;4931190;29;20048;-69
2022/01/04 06:49:47;;;;;;;12.85;4.88;;;;;;;;;;4931240;29;20396;-69
2022/01/04 06:52:17;;;;;;;15.07;5.57;;;;;;;;;;4931184;29;20060;-70
2022/01/04 06:54:48;;;;;;;15.23;4.72;;;;;;;;;;4931517;29;20594;-70
2022/01/04 06:57:24;;;;;;;13.98;5.63;;;;;;;;;;4919824;29;20062;-69
2022/01/04 06:59:54;;;;;;;12.85;5.78;;;;;;;;;;4922824;29;20063;-70
2022/01/04 07:02:24;;;;;;;12.10;5.68;;;;;;;;;;4931369;29;20066;-71
2022/01/04 07:04:55;;;;;;;12.70;5.82;;;;;;;;;;4921535;29;20060;-71
2022/01/04 07:07:25;;;;;;;10.35;4.68;;;;;;;;;;4931840;29;20468;-70
2022/01/04 07:09:56;;;;;;;12.77;6.22;;;;;;;;;;4945057;29;20048;-70
2022/01/04 07:12:26;;;;;;;14.52;4.57;;;;;;;;;;4954455;29;20059;-69
2022/01/04 07:14:56;;;;;;;17.02;4.50;;;;;;;;;;4931157;29;20056;-70
2022/01/04 07:17:26;;;;;;;15.32;4.72;;;;;;;;;;4935657;29;20048;-69
2022/01/04 07:19:56;;;;;;;18.35;5.40;;;;;;;;;;4954176;29;20055;-70
2022/01/04 07:22:27;;;;;;;13.45;5.45;;;;;;;;;;4953772;29;20055;-70
2022/01/04 07:24:57;;;;;;;16.02;5.07;;;;;;;;;;4943799;29;20052;-69
2022/01/04 07:27:27;;;;;;;16.75;5.45;;;;;;;;;;4934593;29;20749;-69
2022/01/04 07:29:57;;;;;;;22.83;4.55;;;;;;;;;;4902879;29;20056;-70
2022/01/04 07:32:28;;;;;;;26.13;5.68;;;;;;;;;;4949751;29;20047;-69
2022/01/04 07:34:58;;;;;;;17.40;5.18;;;;;;;;;;4952682;28;20063;-69
2022/01/04 07:37:28;;;;;;;11.90;5.20;;;;;;;;;;4953354;29;20047;-71
2022/01/04 07:39:58;;;;;;;17.15;6.32;;;;;;;;;;4953513;29;20164;-69
2022/01/04 07:42:29;;;;;;;17.20;5.45;;;;;;;;;;4953567;29;20086;-71
2022/01/04 07:45:02;;;;;;;10.30;5.10;;;;;;;;;;4952998;28;20058;-69
2022/01/04 07:47:32;;;;;;;14.27;5.22;;;;;;;;;;4924781;29;20052;-70
2022/01/04 07:50:03;;;;;;;12.95;5.03;;;;;;;;;;4915041;29;20060;-70
2022/01/04 07:52:33;;;;;;;16.52;5.75;;;;;;;;;;4892869;29;20511;-70
2022/01/04 07:55:05;;;;;;;13.82;4.55;;;;;;;;;;4933881;29;20063;-70
2022/01/04 07:57:36;;;;;;;11.50;5.22;;;;;;;;;;4934201;29;20063;-69
2022/01/04 08:00:07;;;;;;;14.70;5.60;;;;;;;;;;4902021;29;20063;-70
2022/01/04 08:02:45;;;;;;;17.05;5.82;;;;;;;;;;4934642;29;20056;-70
2022/01/04 08:05:15;;;;;;;14.50;5.53;;;;;;;;;;4914449;29;20060;-69
2022/01/04 08:07:46;;;;;;;17.48;5.97;;;;;;;;;;4895903;29;20056;-69
2022/01/04 08:10:18;;;;;;;15.20;4.72;;;;;;;;;;4895275;29;20052;-70
2022/01/04 08:12:48;;;;;;;13.50;6.30;;;;;;;;;;4911482;29;20480;-70
2022/01/04 08:15:20;;;;;;;22.25;6.45;;;;;;;;;;4906487;29;20064;-70
2022/01/04 08:17:50;;;;;;;21.98;6.80;;;;;;;;;;4922401;29;20659;-71
2022/01/04 08:20:20;;;;;;;22.30;6.60;;;;;;;;;;4914670;29;20060;-70
2022/01/04 08:22:50;;;;;;;15.20;6.15;;;;;;;;;;4914467;29;20056;-70
2022/01/04 08:25:21;;;;;;;12.57;5.60;;;;;;;;;;4935683;29;20051;-70
2022/01/04 08:27:54;;;;;;;15.65;6.28;;;;;;;;;;4952907;29;20070;-70
2022/01/04 08:30:25;;;;;;;15.50;4.85;;;;;;;;;;4942087;28;20054;-70
2022/01/04 08:32:55;;;;;;;11.60;5.85;;;;;;;;;;4990751;28;20059;-70
2022/01/04 08:35:25;;;;;;;12.25;5.20;;;;;;;;;;4942451;28;20054;-71
2022/01/04 08:37:56;;;;;;;16.15;6.63;;;;;;;;;;4983384;28;20058;-70
2022/01/04 08:40:26;;;;;;;19.80;6.07;;;;;;;;;;5010200;28;20408;-72
2022/01/04 08:42:56;;;;;;;19.92;6.68;;;;;;;;;;4999544;28;20426;-71
2022/01/04 08:45:27;;;;;;;15.27;5.70;;;;;;;;;;5032062;28;20108;-70
2022/01/04 08:47:57;;;;;;;13.43;5.78;;;;;;;;;;5037812;28;20529;-71
2022/01/04 08:50:28;;;;;;;13.40;6.15;;;;;;;;;;5056728;28;20045;-71
2022/01/04 08:52:59;;;;;;;19.60;5.70;;;;;;;;;;4998879;28;20054;-70
2022/01/04 08:55:29;;;;;;;15.98;6.22;;;;;;;;;;4980651;28;20054;-70
2022/01/04 08:57:59;;;;;;;17.55;6.53;;;;;;;;;;5006531;28;20065;-70
2022/01/04 09:00:36;;;;;;;18.67;5.88;;;;;;;;;;5010034;28;20061;-70
2022/01/04 09:03:07;;;;;;;12.60;5.72;;;;;;;;;;5010104;28;20045;-70
2022/01/04 09:05:37;;;;;;;13.80;6.13;;;;;;;;;;4994101;28;20058;-70
2022/01/04 09:08:07;;;;;;;10.30;5.40;;;;;;;;;;4984737;28;20506;-71
2022/01/04 09:10:38;;;;;;;15.15;6.32;;;;;;;;;;4990274;28;20050;-70
2022/01/04 09:13:20;;;;;;;17.10;5.18;;;;;;;;;;4942297;28;20678;-70
2022/01/04 09:18:43;;;;;;;13.32;5.45;;;;;;;;;;4990219;28;20073;-70
2022/01/04 09:18:46;;;;;;;13.30;5.50;;;;;;;;;;4989987;28;20441;-71
2022/01/04 09:21:28;;;;;;;13.60;6.13;;;;;;;;;;4932469;29;20055;-69
2022/01/04 09:24:00;;;;;;;11.43;5.97;;;;;;;;;;4932495;29;20059;-69
2022/01/04 09:26:30;;;;;;;15.90;6.57;;;;;;;;;;4885314;29;20523;-70
2022/01/04 09:29:00;;;;;;;15.07;6.18;;;;;;;;;;4931903;29;20059;-68
2022/01/04 09:31:31;;;;;;;12.45;6.22;;;;;;;;;;4982774;28;20046;-68
2022/01/04 09:34:03;;;;;;;12.32;6.05;;;;;;;;;;4989953;28;20054;-69
2022/01/04 09:36:39;;;;;;;15.35;6.40;;;;;;;;;;4990337;28;20061;-68
2022/01/04 09:39:15;;;;;;;14.85;6.63;;;;;;;;;;4950995;28;20051;-69
2022/01/04 09:41:45;;;;;;;13.85;5.35;;;;;;;;;;4951063;28;20047;-69
2022/01/04 09:44:18;;;;;;;21.45;7.95;;;;;;;;;;4951365;28;20099;-68
2022/01/04 09:46:50;;;;;;;15.20;6.35;;;;;;;;;;4951361;29;20066;-69
2022/01/04 09:49:21;;;;;;;14.98;7.32;;;;;;;;;;4969400;28;20519;-69
2022/01/04 09:51:51;;;;;;;13.73;8.13;;;;;;;;;;4970665;28;20074;-70
2022/01/04 09:54:24;;;;;;;14.43;8.35;;;;;;;;;;4970419;28;20089;-69
2022/01/04 09:56:55;;;;;;;14.70;8.07;;;;;;;;;;4970377;28;20058;-68
2022/01/04 09:59:26;;;;;;;17.92;6.80;;;;;;;;;;5010118;28;20387;-69
2022/01/04 10:02:02;;;;;;;15.93;8.23;;;;;;;;;;5029441;28;20058;-69
2022/01/04 10:04:33;;;;;;;19.85;8.40;;;;;;;;;;5028837;28;20061;-68
2022/01/04 10:07:07;;;;;;;13.38;7.15;;;;;;;;;;4995966;28;20045;-69
2022/01/04 10:09:42;;;;;;;12.57;8.57;;;;;;;;;;5009009;28;20050;-68
2022/01/04 10:12:14;;;;;;;13.55;7.78;;;;;;;;;;5008618;28;20061;-68
2022/01/04 10:14:47;;;;;;;17.50;8.05;;;;;;;;;;4969704;28;20050;-69
2022/01/04 10:17:29;;;;;;;14.55;8.00;;;;;;;;;;4981512;28;20062;-68
2022/01/04 10:20:01;;;;;;;15.43;7.35;;;;;;;;;;4969866;28;20049;-69
2022/01/04 10:22:35;;;;;;;18.15;7.22;;;;;;;;;;4960577;28;20047;-70
2022/01/04 10:25:05;;;;;;;15.80;7.43;;;;;;;;;;4913827;29;20420;-68
2022/01/04 10:27:44;;;;;;;18.75;8.23;;;;;;;;;;4928519;29;20062;-69
2022/01/04 10:30:27;;;;;;;14.40;7.75;;;;;;;;;;4948076;28;20047;-70
2022/01/04 10:33:10;;;;;;;16.23;8.25;;;;;;;;;;4934847;29;20096;-69
2022/01/04 10:35:46;;;;;;;19.52;8.20;;;;;;;;;;4927751;29;20070;-68
2022/01/04 10:38:27;;;;;;;21.33;8.02;;;;;;;;;;4949909;28;20066;-69
2022/01/04 10:41:00;;;;;;;15.50;7.80;;;;;;;;;;4918984;28;20039;-70
2022/01/04 10:43:33;;;;;;;14.48;8.30;;;;;;;;;;4934732;29;20044;-70
2022/01/04 10:46:04;;;;;;;14.73;7.60;;;;;;;;;;4934758;29;21149;-69
2022/01/04 10:48:41;;;;;;;17.13;7.15;;;;;;;;;;4934562;29;20443;-69
2022/01/04 10:51:12;;;;;;;23.75;9.57;;;;;;;;;;4915541;29;20067;-69
2022/01/04 10:53:49;;;;;;;19.92;8.25;;;;;;;;;;4953388;28;20058;-69
2022/01/04 10:56:38;;;;;;;21.48;8.75;;;;;;;;;;4951881;28;20067;-68
2022/01/04 10:59:11;;;;;;;16.00;7.88;;;;;;;;;;4954871;28;20054;-68
2022/01/04 11:01:51;;;;;;;11.27;7.95;;;;;;;;;;4973294;28;20058;-69
2022/01/04 11:04:21;;;;;;;14.05;7.70;;;;;;;;;;4984474;28;20538;-69
2022/01/04 11:06:59;;;;;;;16.70;8.48;;;;;;;;;;4974338;28;20070;-68
2022/01/04 11:09:31;;;;;;;16.38;8.52;;;;;;;;;;4992758;28;20050;-68
2022/01/04 11:12:02;;;;;;;17.13;9.57;;;;;;;;;;4966101;28;20058;-68
2022/01/04 11:14:32;;;;;;;12.30;7.57;;;;;;;;;;4925442;28;20430;-67
2022/01/04 11:17:04;;;;;;;15.52;7.63;;;;;;;;;;4966511;28;20051;-68
2022/01/04 11:19:35;;;;;;;12.05;7.30;;;;;;;;;;4972839;28;20424;-69
2022/01/04 11:22:08;;;;;;;10.88;8.40;;;;;;;;;;4981268;28;20062;-68
2022/01/04 11:24:41;;;;;;;12.35;7.10;;;;;;;;;;5010086;28;20062;-68
2022/01/04 11:27:11;;;;;;;12.70;6.50;;;;;;;;;;4990161;28;20467;-68
2022/01/04 11:29:48;;;;;;;13.73;5.72;;;;;;;;;;5021738;28;20054;-67
2022/01/04 11:32:21;;;;;;;7.90;5.07;;;;;;;;;;4982828;28;20050;-67
2022/01/04 11:35:19;;;;;;;6.47;3.85;;;;;;;;;;4991994;28;20042;-67
2022/01/04 11:37:54;;;;;;;10.25;5.22;;;;;;;;;;4992021;28;20049;-67
2022/01/04 11:40:29;;;;;;;8.45;4.80;;;;;;;;;;4952875;28;20050;-68
2022/01/04 11:43:01;;;;;;;9.35;4.78;;;;;;;;;;4950846;28;20055;-67
2022/01/04 11:45:39;;;;;;;7.07;3.90;;;;;;;;;;4933578;29;20051;-67
2022/01/04 11:48:27;;;;;;;9.27;4.43;;;;;;;;;;4933878;28;20100;-68
2022/01/04 11:51:04;;;;;;;11.15;7.60;;;;;;;;;;4949183;28;20058;-68
2022/01/04 11:53:36;;;;;;;7.97;4.43;;;;;;;;;;4953736;28;20074;-69
2022/01/04 11:56:08;;;;;;;;;;;;;;;;;;4972825;28;20241;-68
2022/01/04 11:58:51;;;;;;;6.13;3.45;;;;;;;;;;4956363;28;20092;-68
2022/01/04 12:01:27;;;;;;;7.53;4.75;;;;;;;;;;4969491;28;20062;-68
2022/01/04 12:03:58;;;;;;;8.43;5.05;;;;;;;;;;4933522;29;20055;-68
2022/01/04 12:06:42;;;;;;;24.65;12.45;;;;;;;;;;4933523;28;20048;-68
2022/01/04 12:09:29;;;;;;;7.22;4.18;;;;;;;;;;4897729;29;20044;-70
2022/01/04 12:12:00;;;;;;;13.60;7.38;;;;;;;;;;4933480;29;20501;-68
2022/01/04 12:14:33;;;;;;;10.57;5.82;;;;;;;;;;4933246;29;20071;-68
2022/01/04 12:17:11;;;;;;;18.95;11.68;;;;;;;;;;4887534;29;20060;-68
2022/01/04 12:19:50;;;;;;;7.68;3.67;;;;;;;;;;4933786;29;20051;-69
2022/01/04 12:22:32;;;;;;;6.38;4.00;;;;;;;;;;4939949;28;20065;-69
2022/01/04 12:25:10;;;;;;;6.95;3.80;;;;;;;;;;4972114;28;20078;-69
2022/01/04 12:28:16;;;;;;;6.60;3.97;;;;;;;;;;4954562;28;20059;-68
2022/01/04 12:30:47;;;;;;;5.32;3.50;;;;;;;;;;4971544;28;20407;-69
2022/01/04 12:33:37;;;;;;;7.32;4.20;;;;;;;;;;4971586;28;20061;-69
2022/01/04 12:36:09;;;;;;;6.85;3.65;;;;;;;;;;4971563;28;20051;-69
2022/01/04 12:38:39;;;;;;;8.38;3.58;;;;;;;;;;4955712;28;20057;-69
2022/01/04 12:41:09;;;;;;;7.32;4.00;;;;;;;;;;4951967;29;20534;-70
2022/01/04 12:43:40;;;;;;;5.25;3.17;;;;;;;;;;4971447;28;20047;-70
2022/01/04 12:46:11;;;;;;;6.93;3.08;;;;;;;;;;4971347;28;20582;-68
2022/01/04 12:48:49;;;;;;;7.32;3.53;;;;;;;;;;4971361;28;20058;-68
2022/01/04 12:51:36;;;;;;;5.93;3.55;;;;;;;;;;4971446;28;20535;-69
2022/01/04 12:54:06;;;;;;;6.25;2.95;;;;;;;;;;4955265;28;20124;-69
2022/01/04 12:56:43;;;;;;;10.50;7.25;;;;;;;;;;4970717;28;20058;-71
2022/01/04 12:59:22;;;;;;;7.38;3.00;;;;;;;;;;4954726;28;20053;-70
2022/01/04 13:02:12;;;;;;;6.80;3.92;;;;;;;;;;4922794;28;20388;-70
2022/01/04 13:04:46;;;;;;;9.60;4.20;;;;;;;;;;4970982;28;20058;-69
2022/01/04 13:07:30;;;;;;;6.95;4.47;;;;;;;;;;4971481;28;20561;-70
2022/01/04 13:10:09;;;;;;;7.13;4.00;;;;;;;;;;4971096;28;20055;-70
2022/01/04 13:12:40;;;;;;;;;;;;;;;;;;4971322;28;20047;-70
2022/01/04 13:15:14;;;;;;;8.73;4.68;;;;;;;;;;4971176;28;20400;-71
2022/01/04 13:17:47;;;;;;;5.90;3.50;;;;;;;;;;4954713;28;20089;-70
2022/01/04 13:20:26;;;;;;;8.93;3.78;;;;;;;;;;4974015;28;20047;-67
2022/01/04 13:22:57;;;;;;;7.07;4.07;;;;;;;;;;4989661;28;20050;-66
2022/01/04 13:25:29;;;;;;;8.15;3.80;;;;;;;;;;4962620;28;20047;-68
2022/01/04 13:28:05;;;;;;;6.35;4.82;;;;;;;;;;4963841;28;20094;-66
2022/01/04 13:30:46;;;;;;;10.23;4.07;;;;;;;;;;4959546;28;20059;-65
2022/01/04 13:33:23;;;;;;;7.05;4.00;;;;;;;;;;4962660;28;20199;-66
2022/01/04 13:35:56;;;;;;;9.52;4.20;;;;;;;;;;4969866;28;20051;-66
2022/01/04 13:38:28;;;;;;;7.90;4.25;;;;;;;;;;4970296;28;20054;-67
2022/01/04 13:40:59;;;;;;;7.35;4.43;;;;;;;;;;4933236;28;20047;-67
2022/01/04 13:43:36;;;;;;;19.58;8.48;;;;;;;;;;4988381;28;20050;-67
2022/01/04 13:46:12;;;;;;;10.15;4.10;;;;;;;;;;4988437;28;20058;-68
2022/01/04 13:48:47;;;;;;;9.85;5.07;;;;;;;;;;4987681;28;20055;-70
2022/01/04 13:51:24;;;;;;;8.32;5.00;;;;;;;;;;4973672;28;20050;-70
2022/01/04 13:53:57;;;;;;;11.13;5.03;;;;;;;;;;4989511;28;20051;-70
2022/01/04 13:56:32;;;;;;;17.25;7.13;;;;;;;;;;4970983;28;20061;-70
2022/01/04 13:59:03;;;;;;;8.77;4.88;;;;;;;;;;4989488;28;20061;-70
2022/01/04 14:01:40;;;;;;;8.45;5.38;;;;;;;;;;4973549;28;20059;-71
2022/01/04 14:04:23;;;;;;;11.70;5.80;;;;;;;;;;5008980;28;20045;-72
2022/01/04 14:06:59;;;;;;;8.20;5.20;;;;;;;;;;5027075;28;20054;-70
2022/01/04 14:09:43;;;;;;;13.93;5.90;;;;;;;;;;5008534;28;20050;-70
2022/01/04 14:12:16;;;;;;;8.73;5.70;;;;;;;;;;5006787;28;20049;-69
2022/01/04 14:14:54;;;;;;;7.93;5.05;;;;;;;;;;5000816;28;20062;-68
2022/01/04 14:17:28;;;;;;;10.10;5.70;;;;;;;;;;5016881;28;20046;-68
2022/01/04 14:20:09;;;;;;;20.42;4.50;;;;;;;;;;5039687;28;20513;-69
2022/01/04 14:22:43;;;;;;;6.45;4.55;;;;;;;;;;4999015;28;20053;-67
2022/01/04 14:25:19;;;;;;;6.35;3.95;;;;;;;;;;4988367;28;20429;-68
2022/01/04 14:27:54;;;;;;;10.82;4.43;;;;;;;;;;4953150;28;20046;-70
2022/01/04 14:30:25;;;;;;;8.75;4.43;;;;;;;;;;4912349;29;20527;-69
2022/01/04 14:33:01;;;;;;;5.93;4.32;;;;;;;;;;4912232;29;20063;-69
2022/01/04 14:35:34;;;;;;;5.75;3.83;;;;;;;;;;4908492;29;20410;-68
2022/01/04 14:38:06;;;;;;;7.82;3.90;;;;;;;;;;4909562;29;20067;-67
2022/01/04 14:40:38;;;;;;;;;;;;;;;;;;4902497;29;20060;-68
2022/01/04 14:43:07;;;;;;;;;;;;;;;;;;4897653;29;20084;-69
2022/01/04 14:45:38;;;;;;;8.30;4.38;;;;;;;;;;4884124;29;19926;-67
2022/01/04 14:48:09;;;;;;;9.43;6.45;;;;;;;;;;4886994;29;20052;-68
2022/01/04 14:50:39;;;;;;;8.32;5.93;;;;;;;;;;4900095;29;20063;-68
2022/01/04 14:53:11;;;;;;;6.18;3.85;;;;;;;;;;4903280;29;20051;-69
2022/01/04 14:55:43;;;;;;;23.95;13.95;;;;;;;;;;4921928;29;20520;-71
2022/01/04 14:58:30;;;;;;;10.45;6.10;;;;;;;;;;4922019;29;20056;-73
2022/01/04 15:01:00;;;;;;;13.93;8.68;;;;;;;;;;4931482;28;20055;-71
2022/01/04 15:03:31;;;;;;;10.93;6.80;;;;;;;;;;4964751;28;20051;-71
2022/01/04 15:06:04;;;;;;;11.10;6.40;;;;;;;;;;4994250;28;20054;-70
2022/01/04 15:08:34;;;;;;;8.40;5.88;;;;;;;;;;4993730;28;20050;-70
2022/01/04 15:11:05;;;;;;;7.65;3.83;;;;;;;;;;4986075;28;20056;-70